createdAt,value
2023-03-12T00:00:49.270Z,100148.47
2023-03-12T00:01:50.767Z,100161.47
2023-03-12T00:02:53.696Z,100156.13
2023-03-12T00:03:55.350Z,100155.00
2023-03-12T00:04:58.177Z,100161.06
2023-03-12T00:06:09.778Z,100158.53
2023-03-12T00:07:12.933Z,100162.78
2023-03-12T00:08:15.811Z,100167.66
2023-03-12T00:09:18.253Z,100162.22
2023-03-12T00:10:20.516Z,100167.25
2023-03-12T00:11:23.219Z,100168.69
2023-03-12T00:12:25.029Z,100177.03
2023-03-12T00:13:27.606Z,100167.13
2023-03-12T00:14:29.237Z,100174.22
2023-03-12T00:15:31.955Z,100178.59
2023-03-12T00:16:34.679Z,100177.81
2023-03-12T00:17:36.649Z,100170.53
2023-03-12T00:18:40.131Z,100171.72
2023-03-12T00:19:41.669Z,100169.28
2023-03-12T00:20:44.157Z,100173.97
2023-03-12T00:21:45.756Z,100171.53
2023-03-12T00:22:48.330Z,100173.06
2023-03-12T00:23:52.425Z,100170.66
2023-03-12T00:24:57.147Z,100168.25
2023-03-12T00:26:02.158Z,100180.88
2023-03-12T00:27:04.937Z,100178.53
2023-03-12T00:28:06.456Z,100177.56
2023-03-12T00:29:08.977Z,100177.31
2023-03-12T00:30:11.874Z,100175.97
2023-03-12T00:31:16.661Z,100182.81
2023-03-12T00:32:18.448Z,100182.31
2023-03-12T00:33:20.928Z,100185.19
2023-03-12T00:34:22.719Z,100187.72
2023-03-12T00:35:25.731Z,100185.78
2023-03-12T00:36:29.879Z,100184.69
2023-03-12T00:37:33.391Z,100186.19
2023-03-12T00:38:35.008Z,100184.59
2023-03-12T00:39:38.910Z,100188.38
2023-03-12T00:40:40.526Z,100178.66
2023-03-12T00:41:43.073Z,100182.03
2023-03-12T00:42:44.648Z,100185.03
2023-03-12T00:43:47.217Z,100177.38
2023-03-12T00:44:48.798Z,100181.19
2023-03-12T00:45:51.375Z,100178.63
2023-03-12T00:46:53.027Z,100188.28
2023-03-12T00:47:55.488Z,100178.75
2023-03-12T00:48:57.014Z,100184.81
2023-03-12T00:49:59.619Z,100184.00
2023-03-12T00:51:02.063Z,100189.56
2023-03-12T00:52:05.316Z,100179.97
2023-03-12T00:53:07.840Z,100183.50
2023-03-12T00:54:09.617Z,100183.19
2023-03-12T00:55:13.475Z,100181.97
2023-03-12T00:56:15.714Z,100178.31
2023-03-12T00:57:18.163Z,100184.53
2023-03-12T00:58:19.749Z,100176.81
2023-03-12T00:59:22.293Z,100176.22
2023-03-12T01:00:24.101Z,100184.84
2023-03-12T01:01:27.636Z,100173.78
2023-03-12T01:02:29.169Z,100182.91
2023-03-12T01:03:31.737Z,100177.06
2023-03-12T01:04:33.442Z,100186.69
2023-03-12T01:05:37.768Z,100182.06
2023-03-12T01:06:39.486Z,100182.38
2023-03-12T01:07:42.248Z,100184.81
2023-03-12T01:08:44.174Z,100180.19
2023-03-12T01:09:46.676Z,100184.84
2023-03-12T01:10:49.925Z,100180.69
2023-03-12T01:11:53.015Z,100185.69
2023-03-12T01:12:54.536Z,100189.38
2023-03-12T01:13:57.028Z,100184.09
2023-03-12T01:14:58.597Z,100189.66
2023-03-12T01:16:01.209Z,100188.94
2023-03-12T01:17:02.789Z,100182.78
2023-03-12T01:18:05.441Z,100187.72
2023-03-12T01:19:07.034Z,100186.69
2023-03-12T01:20:11.284Z,100188.38
2023-03-12T01:21:14.192Z,100190.59
2023-03-12T01:22:15.762Z,100194.69
2023-03-12T01:23:18.319Z,100191.50
2023-03-12T01:24:19.928Z,100180.44
2023-03-12T01:25:22.562Z,100187.22
2023-03-12T01:26:25.549Z,100190.59
2023-03-12T01:27:28.122Z,100190.06
2023-03-12T01:28:30.669Z,100188.06
2023-03-12T01:29:32.235Z,100189.56
2023-03-12T01:30:34.751Z,100189.22
2023-03-12T01:31:37.584Z,100185.84
2023-03-12T01:32:39.192Z,100184.28
2023-03-12T01:33:42.018Z,100188.75
2023-03-12T01:34:43.779Z,100182.94
2023-03-12T01:35:46.484Z,100182.50
2023-03-12T01:36:48.197Z,100184.53
2023-03-12T01:37:50.871Z,100185.31
2023-03-12T01:38:53.813Z,100182.31
2023-03-12T01:39:56.355Z,100181.59
2023-03-12T01:40:58.003Z,100177.16
2023-03-12T01:42:02.133Z,100178.22
2023-03-12T01:43:24.938Z,100188.63
2023-03-12T01:44:27.457Z,100177.59
2023-03-12T01:46:03.555Z,100188.47
2023-03-12T01:47:06.582Z,100181.06
2023-03-12T01:48:08.393Z,100177.88
2023-03-12T01:49:13.759Z,100177.03
2023-03-12T01:50:15.500Z,100181.13
2023-03-12T01:51:19.555Z,100168.66
2023-03-12T01:52:23.266Z,100179.28
2023-03-12T01:53:25.965Z,100169.53
2023-03-12T01:54:34.610Z,100178.16
2023-03-12T01:55:36.432Z,100169.25
2023-03-12T01:56:39.801Z,100175.22
2023-03-12T01:57:47.208Z,100169.09
2023-03-12T01:58:53.808Z,100170.47
2023-03-12T02:00:00.718Z,100165.44
2023-03-12T02:01:02.459Z,100170.38
2023-03-12T02:02:06.474Z,100168.34
2023-03-12T02:03:10.330Z,100166.59
2023-03-12T02:04:13.995Z,100166.44
2023-03-12T02:05:22.779Z,100173.69
2023-03-12T02:06:31.466Z,100161.06
2023-03-12T02:07:35.701Z,100160.94
2023-03-12T02:08:39.632Z,100168.13
2023-03-12T02:09:44.805Z,100171.28
2023-03-12T02:10:46.655Z,100163.88
2023-03-12T02:11:49.215Z,100163.66
2023-03-12T02:12:52.329Z,100171.47
2023-03-12T02:13:54.867Z,100170.34
2023-03-12T02:14:56.540Z,100163.06
2023-03-12T02:15:59.489Z,100161.38
2023-03-12T02:17:01.196Z,100157.53
2023-03-12T02:18:04.139Z,100159.75
2023-03-12T02:19:16.609Z,100160.50
2023-03-12T02:20:25.727Z,100166.00
2023-03-12T02:21:33.680Z,100165.63
2023-03-12T02:22:37.013Z,100166.94
2023-03-12T02:23:45.331Z,100173.88
2023-03-12T02:24:54.633Z,100166.94
2023-03-12T02:26:00.071Z,100168.81
2023-03-12T02:27:04.633Z,100170.41
2023-03-12T02:28:08.478Z,100166.91
2023-03-12T02:29:12.188Z,100177.66
2023-03-12T02:30:16.017Z,100171.44
2023-03-12T02:31:22.435Z,100183.78
2023-03-12T02:32:28.342Z,100179.56
2023-03-12T02:33:30.973Z,100177.09
2023-03-12T02:34:32.559Z,100178.72
2023-03-12T02:35:35.423Z,100177.19
2023-03-12T02:36:37.341Z,100184.31
2023-03-12T02:37:48.815Z,100181.97
2023-03-12T02:38:51.913Z,100174.31
2023-03-12T02:40:00.618Z,100180.75
2023-03-12T02:41:09.949Z,100178.91
2023-03-12T02:42:12.929Z,100177.19
2023-03-12T02:43:15.028Z,100182.47
2023-03-12T02:44:19.976Z,100161.53
2023-03-12T02:45:22.621Z,100171.69
2023-03-12T02:46:25.295Z,100176.19
2023-03-12T02:47:28.004Z,100171.06
2023-03-12T02:48:29.558Z,100178.97
2023-03-12T02:49:34.778Z,100164.25
2023-03-12T02:50:36.433Z,100170.06
2023-03-12T02:51:39.177Z,100177.63
2023-03-12T02:52:40.804Z,100175.47
2023-03-12T02:53:43.596Z,100183.78
2023-03-12T02:54:46.036Z,100178.97
2023-03-12T02:55:47.617Z,100184.00
2023-03-12T02:56:52.506Z,100188.97
2023-03-12T02:57:54.117Z,100176.78
2023-03-12T02:58:56.925Z,100190.91
2023-03-12T02:59:58.481Z,100187.66
2023-03-12T03:01:01.098Z,100191.28
2023-03-12T03:02:04.488Z,100193.22
2023-03-12T03:03:06.331Z,100186.81
2023-03-12T03:04:22.458Z,100186.13
2023-03-12T03:05:24.002Z,100187.63
2023-03-12T03:06:27.090Z,100182.16
2023-03-12T03:07:29.044Z,100184.13
2023-03-12T03:08:31.502Z,100189.81
2023-03-12T03:09:34.205Z,100189.97
2023-03-12T03:10:35.752Z,100192.63
2023-03-12T03:11:38.406Z,100194.44
2023-03-12T03:12:41.300Z,100188.28
2023-03-12T03:13:43.864Z,100195.88
2023-03-12T03:14:45.414Z,100185.50
2023-03-12T03:15:48.440Z,100188.78
2023-03-12T03:16:50.729Z,100186.31
2023-03-12T03:17:53.229Z,100181.34
2023-03-12T03:18:54.785Z,100181.97
2023-03-12T03:19:57.658Z,100193.53
2023-03-12T03:21:01.376Z,100190.41
2023-03-12T03:22:04.283Z,100189.91
2023-03-12T03:23:05.902Z,100191.75
2023-03-12T03:24:09.078Z,100193.19
2023-03-12T03:25:11.325Z,100189.19
2023-03-12T03:26:14.916Z,100193.41
2023-03-12T03:27:16.563Z,100185.00
2023-03-12T03:28:20.410Z,100192.09
2023-03-12T03:29:22.235Z,100189.19
2023-03-12T03:30:24.981Z,100188.78
2023-03-12T03:31:26.663Z,100184.25
2023-03-12T03:32:29.760Z,100180.59
2023-03-12T03:33:34.215Z,100193.66
2023-03-12T03:34:36.748Z,100186.31
2023-03-12T03:35:38.454Z,100192.63
2023-03-12T03:36:41.018Z,100191.78
2023-03-12T03:37:42.635Z,100186.88
2023-03-12T03:38:49.234Z,100193.69
2023-03-12T03:39:50.734Z,100190.00
2023-03-12T03:40:54.257Z,100197.53
2023-03-12T03:41:55.782Z,100190.09
2023-03-12T03:42:58.309Z,100193.22
2023-03-12T03:44:01.230Z,100198.19
2023-03-12T03:45:04.149Z,100202.69
2023-03-12T03:46:06.488Z,100206.91
2023-03-12T03:47:09.013Z,100207.81
2023-03-12T03:48:10.700Z,100207.00
2023-03-12T03:49:13.245Z,100198.66
2023-03-12T03:50:14.793Z,100199.88
2023-03-12T03:51:17.731Z,100201.28
2023-03-12T03:52:19.379Z,100195.31
2023-03-12T03:53:22.559Z,100194.75
2023-03-12T03:54:24.096Z,100200.72
2023-03-12T03:55:26.802Z,100204.81
2023-03-12T03:56:28.836Z,100206.44
2023-03-12T03:57:31.274Z,100203.34
2023-03-12T03:58:32.906Z,100206.59
2023-03-12T03:59:36.861Z,100204.88
2023-03-12T04:00:38.503Z,100199.72
2023-03-12T04:01:41.352Z,100205.78
2023-03-12T04:02:42.891Z,100208.00
2023-03-12T04:03:45.680Z,100203.69
2023-03-12T04:04:47.269Z,100207.25
2023-03-12T04:05:55.712Z,100204.97
2023-03-12T04:06:57.593Z,100211.63
2023-03-12T04:08:03.083Z,100214.72
2023-03-12T04:09:04.708Z,100209.94
2023-03-12T04:10:08.159Z,100209.91
2023-03-12T04:11:11.700Z,100205.59
2023-03-12T04:12:14.500Z,100218.13
2023-03-12T04:13:16.302Z,100214.41
2023-03-12T04:14:18.904Z,100204.44
2023-03-12T04:15:22.334Z,100214.44
2023-03-12T04:16:24.904Z,100212.84
2023-03-12T04:17:26.501Z,100214.09
2023-03-12T04:18:29.203Z,100215.84
2023-03-12T04:19:30.694Z,100213.94
2023-03-12T04:20:33.201Z,100219.78
2023-03-12T04:21:34.784Z,100214.78
2023-03-12T04:22:37.966Z,100217.19
2023-03-12T04:23:39.887Z,100200.47
2023-03-12T04:24:42.437Z,100214.44
2023-03-12T04:25:44.019Z,100211.75
2023-03-12T04:26:46.512Z,100210.78
2023-03-12T04:27:48.092Z,100212.88
2023-03-12T04:28:50.701Z,100204.81
2023-03-12T04:29:52.205Z,100214.09
2023-03-12T04:30:59.509Z,100217.19
2023-03-12T04:32:01.152Z,100217.66
2023-03-12T04:33:03.670Z,100221.56
2023-03-12T04:34:05.218Z,100212.06
2023-03-12T04:35:08.198Z,100218.03
2023-03-12T04:36:11.099Z,100205.41
2023-03-12T04:37:14.975Z,100216.50
2023-03-12T04:38:16.572Z,100216.22
2023-03-12T04:39:20.280Z,100203.16
2023-03-12T04:40:22.220Z,100219.09
2023-03-12T04:41:24.834Z,100211.81
2023-03-12T04:42:27.289Z,100211.16
2023-03-12T04:43:29.831Z,100212.09
2023-03-12T04:44:32.443Z,100207.13
2023-03-12T04:45:34.062Z,100208.34
2023-03-12T04:46:38.287Z,100212.41
2023-03-12T04:47:39.830Z,100217.22
2023-03-12T04:48:42.332Z,100216.09
2023-03-12T04:49:43.904Z,100209.75
2023-03-12T04:50:46.392Z,100214.06
2023-03-12T04:51:48.289Z,100215.38
2023-03-12T04:52:50.969Z,100205.66
2023-03-12T04:53:52.691Z,100209.69
2023-03-12T04:54:55.788Z,100212.06
2023-03-12T04:55:57.613Z,100210.03
2023-03-12T04:57:00.173Z,100198.41
2023-03-12T04:58:01.749Z,100208.00
2023-03-12T04:59:04.718Z,100212.25
2023-03-12T05:00:11.001Z,100210.72
2023-03-12T05:01:22.932Z,100212.91
2023-03-12T05:02:25.956Z,100215.22
2023-03-12T05:03:28.677Z,100212.56
2023-03-12T05:04:33.162Z,100208.41
2023-03-12T05:05:36.502Z,100209.41
2023-03-12T05:06:38.106Z,100203.69
2023-03-12T05:07:40.716Z,100211.63
2023-03-12T05:08:42.425Z,100207.31
2023-03-12T05:09:46.291Z,100205.28
2023-03-12T05:10:47.891Z,100202.28
2023-03-12T05:11:50.400Z,100197.13
2023-03-12T05:12:52.218Z,100204.09
2023-03-12T05:13:54.743Z,100213.31
2023-03-12T05:14:56.301Z,100201.84
2023-03-12T05:15:58.779Z,100186.31
2023-03-12T05:17:00.473Z,100204.56
2023-03-12T05:18:04.521Z,100201.34
2023-03-12T05:19:07.414Z,100204.56
2023-03-12T05:20:10.407Z,100195.97
2023-03-12T05:21:15.624Z,100194.75
2023-03-12T05:22:18.198Z,100196.06
2023-03-12T05:23:20.934Z,100199.81
2023-03-12T05:24:22.729Z,100200.22
2023-03-12T05:25:25.226Z,100195.81
2023-03-12T05:26:29.310Z,100199.44
2023-03-12T05:27:32.097Z,100201.31
2023-03-12T05:28:33.881Z,100200.03
2023-03-12T05:29:36.757Z,100198.47
2023-03-12T05:30:39.605Z,100209.97
2023-03-12T05:31:42.316Z,100195.88
2023-03-12T05:32:43.988Z,100201.97
2023-03-12T05:33:48.676Z,100198.47
2023-03-12T05:34:51.308Z,100202.13
2023-03-12T05:35:54.411Z,100199.94
2023-03-12T05:36:57.145Z,100205.31
2023-03-12T05:37:59.170Z,100207.34
2023-03-12T05:39:01.622Z,100200.91
2023-03-12T05:40:04.584Z,100197.16
2023-03-12T05:41:07.819Z,100207.00
2023-03-12T05:42:09.378Z,100206.28
2023-03-12T05:43:11.841Z,100202.09
2023-03-12T05:44:15.979Z,100209.16
2023-03-12T05:45:19.729Z,100207.88
2023-03-12T05:46:21.276Z,100207.88
2023-03-12T05:47:23.751Z,100205.47
2023-03-12T05:48:26.319Z,100205.06
2023-03-12T05:49:29.561Z,100200.09
2023-03-12T05:50:32.019Z,100208.09
2023-03-12T05:51:33.842Z,100209.69
2023-03-12T05:52:36.331Z,100216.47
2023-03-12T05:53:37.821Z,100208.34
2023-03-12T05:54:40.721Z,100208.84
2023-03-12T05:55:42.318Z,100208.47
2023-03-12T05:56:44.946Z,100205.84
2023-03-12T05:57:47.118Z,100206.91
2023-03-12T05:58:50.772Z,100207.19
2023-03-12T05:59:52.321Z,100210.06
2023-03-12T06:00:54.793Z,100214.38
2023-03-12T06:01:56.869Z,100205.13
2023-03-12T06:02:59.448Z,100213.56
2023-03-12T06:04:01.184Z,100215.22
2023-03-12T06:05:06.131Z,100209.41
2023-03-12T06:06:07.672Z,100215.75
2023-03-12T06:07:10.204Z,100222.34
2023-03-12T06:08:11.957Z,100216.91
2023-03-12T06:09:14.448Z,100211.63
2023-03-12T06:10:16.505Z,100213.03
2023-03-12T06:11:19.569Z,100214.00
2023-03-12T06:12:21.105Z,100212.91
2023-03-12T06:13:25.203Z,100208.22
2023-03-12T06:14:27.880Z,100210.28
2023-03-12T06:15:29.419Z,100206.75
2023-03-12T06:16:32.102Z,100209.47
2023-03-12T06:17:33.646Z,100204.09
2023-03-12T06:18:37.415Z,100200.31
2023-03-12T06:19:39.096Z,100202.59
2023-03-12T06:20:43.080Z,100202.78
2023-03-12T06:21:44.689Z,100199.41
2023-03-12T06:22:47.256Z,100201.44
2023-03-12T06:23:50.075Z,100201.78
2023-03-12T06:24:52.665Z,100202.91
2023-03-12T06:25:54.194Z,100202.19
2023-03-12T06:26:57.098Z,100204.81
2023-03-12T06:27:59.606Z,100198.59
2023-03-12T06:29:01.186Z,100201.72
2023-03-12T06:30:04.614Z,100195.91
2023-03-12T06:31:07.543Z,100200.94
2023-03-12T06:32:10.382Z,100199.47
2023-03-12T06:33:11.872Z,100192.63
2023-03-12T06:34:16.723Z,100194.44
2023-03-12T06:35:18.484Z,100198.28
2023-03-12T06:36:22.942Z,100196.06
2023-03-12T06:37:24.504Z,100194.78
2023-03-12T06:38:27.481Z,100194.97
2023-03-12T06:39:30.200Z,100197.72
2023-03-12T06:40:33.012Z,100203.00
2023-03-12T06:41:34.781Z,100195.88
2023-03-12T06:42:37.576Z,100195.19
2023-03-12T06:43:40.270Z,100190.97
2023-03-12T06:44:42.741Z,100192.53
2023-03-12T06:45:44.287Z,100193.81
2023-03-12T06:46:46.877Z,100188.25
2023-03-12T06:47:49.650Z,100199.22
2023-03-12T06:48:51.547Z,100185.81
2023-03-12T06:49:54.219Z,100200.78
2023-03-12T06:50:55.873Z,100197.72
2023-03-12T06:51:59.786Z,100198.81
2023-03-12T06:53:01.327Z,100202.16
2023-03-12T06:54:04.942Z,100206.28
2023-03-12T06:55:07.173Z,100204.22
2023-03-12T06:56:10.065Z,100202.75
2023-03-12T06:57:11.607Z,100202.53
2023-03-12T06:58:14.242Z,100204.41
2023-03-12T06:59:16.196Z,100201.28
2023-03-12T07:00:19.455Z,100200.06
2023-03-12T07:01:21.271Z,100204.22
2023-03-12T07:02:23.803Z,100205.22
2023-03-12T07:03:25.583Z,100211.59
2023-03-12T07:04:28.335Z,100208.97
2023-03-12T07:05:30.256Z,100206.34
2023-03-12T07:06:32.854Z,100199.72
2023-03-12T07:07:36.149Z,100184.78
2023-03-12T07:08:38.962Z,100189.84
2023-03-12T07:09:40.516Z,100200.22
2023-03-12T07:10:43.255Z,100189.16
2023-03-12T07:11:46.045Z,100191.63
2023-03-12T07:12:47.877Z,100183.41
2023-03-12T07:13:51.570Z,100193.41
2023-03-12T07:14:53.172Z,100190.03
2023-03-12T07:15:56.174Z,100181.13
2023-03-12T07:16:59.001Z,100192.75
2023-03-12T07:18:02.196Z,100193.38
2023-03-12T07:19:04.902Z,100194.34
2023-03-12T07:20:08.227Z,100194.47
2023-03-12T07:21:10.983Z,100192.69
2023-03-12T07:22:12.542Z,100182.59
2023-03-12T07:23:16.610Z,100187.03
2023-03-12T07:24:19.309Z,100186.22
2023-03-12T07:25:20.796Z,100187.41
2023-03-12T07:26:23.390Z,100170.50
2023-03-12T07:27:25.047Z,100180.19
2023-03-12T07:28:27.589Z,100175.06
2023-03-12T07:29:30.231Z,100173.78
2023-03-12T07:30:33.843Z,100177.91
2023-03-12T07:31:36.424Z,100185.28
2023-03-12T07:32:38.121Z,100172.88
2023-03-12T07:33:41.558Z,100177.91
2023-03-12T07:34:43.178Z,100177.13
2023-03-12T07:35:49.187Z,100175.47
2023-03-12T07:36:52.781Z,100179.81
2023-03-12T07:37:54.514Z,100173.38
2023-03-12T07:38:59.065Z,100177.56
2023-03-12T07:40:00.935Z,100179.31
2023-03-12T07:41:03.646Z,100178.06
2023-03-12T07:42:05.552Z,100182.13
2023-03-12T07:43:11.230Z,100180.25
2023-03-12T07:44:13.857Z,100180.03
2023-03-12T07:45:15.589Z,100170.19
2023-03-12T07:46:21.261Z,100180.13
2023-03-12T07:47:24.526Z,100176.19
2023-03-12T07:48:27.368Z,100176.13
2023-03-12T07:49:28.997Z,100177.28
2023-03-12T07:50:31.544Z,100184.06
2023-03-12T07:51:34.359Z,100179.09
2023-03-12T07:52:36.426Z,100179.69
2023-03-12T07:53:38.921Z,100177.94
2023-03-12T07:54:42.233Z,100183.44
2023-03-12T07:55:46.094Z,100180.28
2023-03-12T07:56:49.410Z,100182.06
2023-03-12T07:57:51.489Z,100189.66
2023-03-12T07:58:54.457Z,100184.88
2023-03-12T07:59:56.207Z,100181.44
2023-03-12T08:00:58.864Z,100185.28
2023-03-12T08:02:00.731Z,100183.44
2023-03-12T08:03:03.581Z,100185.31
2023-03-12T08:04:05.375Z,100194.66
2023-03-12T08:05:08.735Z,100189.41
2023-03-12T08:06:10.619Z,100190.66
2023-03-12T08:07:13.437Z,100186.28
2023-03-12T08:08:17.248Z,100188.31
2023-03-12T08:09:18.791Z,100187.50
2023-03-12T08:10:23.340Z,100180.78
2023-03-12T08:11:25.857Z,100182.47
2023-03-12T08:12:27.804Z,100187.38
2023-03-12T08:13:30.425Z,100167.91
2023-03-12T08:14:31.985Z,100180.34
2023-03-12T08:15:34.932Z,100174.22
2023-03-12T08:16:36.850Z,100177.44
2023-03-12T08:17:39.506Z,100172.53
2023-03-12T08:18:43.246Z,100172.31
2023-03-12T08:19:44.767Z,100168.94
2023-03-12T08:20:50.626Z,100169.88
2023-03-12T08:21:53.268Z,100171.63
2023-03-12T08:22:55.805Z,100171.34
2023-03-12T08:23:58.333Z,100172.03
2023-03-12T08:24:59.907Z,100172.84
2023-03-12T08:26:04.433Z,100174.03
2023-03-12T08:27:06.112Z,100167.97
2023-03-12T08:28:08.620Z,100168.75
2023-03-12T08:29:11.124Z,100156.28
2023-03-12T08:30:13.157Z,100161.47
2023-03-12T08:31:15.869Z,100161.75
2023-03-12T08:32:17.534Z,100156.38
2023-03-12T08:33:21.118Z,100158.50
2023-03-12T08:34:22.623Z,100144.94
2023-03-12T08:35:25.414Z,100150.06
2023-03-12T08:36:27.922Z,100149.31
2023-03-12T08:37:30.333Z,100140.91
2023-03-12T08:38:33.026Z,100140.53
2023-03-12T08:39:35.888Z,100130.03
2023-03-12T08:40:37.454Z,100134.56
2023-03-12T08:41:41.265Z,100139.16
2023-03-12T08:42:44.065Z,100135.13
2023-03-12T08:43:46.836Z,100133.81
2023-03-12T08:44:48.520Z,100135.75
2023-03-12T08:45:54.948Z,100136.94
2023-03-12T08:46:56.868Z,100144.03
2023-03-12T08:47:59.349Z,100144.03
2023-03-12T08:49:00.900Z,100146.91
2023-03-12T08:50:03.620Z,100141.69
2023-03-12T08:51:07.605Z,100141.13
2023-03-12T08:52:09.289Z,100134.41
2023-03-12T08:53:12.130Z,100141.75
2023-03-12T08:54:13.675Z,100141.28
2023-03-12T08:55:16.629Z,100139.41
2023-03-12T08:56:19.689Z,100132.16
2023-03-12T08:57:22.672Z,100123.19
2023-03-12T08:58:27.087Z,100127.13
2023-03-12T08:59:29.627Z,100133.09
2023-03-12T09:00:31.201Z,100126.16
2023-03-12T09:01:33.860Z,100121.91
2023-03-12T09:02:35.660Z,100129.41
2023-03-12T09:03:38.303Z,100114.38
2023-03-12T09:04:41.293Z,100127.13
2023-03-12T09:05:43.587Z,100119.50
2023-03-12T09:06:46.692Z,100120.03
2023-03-12T09:07:50.130Z,100130.47
2023-03-12T09:08:51.970Z,100129.19
2023-03-12T09:09:55.797Z,100121.06
2023-03-12T09:10:57.520Z,100123.72
2023-03-12T09:12:00.176Z,100132.84
2023-03-12T09:13:04.268Z,100123.88
2023-03-12T09:15:29.440Z,100113.66
2023-03-12T09:16:31.151Z,100124.00
2023-03-12T09:17:33.796Z,100126.94
2023-03-12T09:18:37.793Z,100122.72
2023-03-12T09:19:41.354Z,100126.53
2023-03-12T09:20:43.139Z,100128.00
2023-03-12T09:21:45.607Z,100123.66
2023-03-12T09:22:48.283Z,100125.78
2023-03-12T09:23:51.031Z,100120.69
2023-03-12T09:24:53.906Z,100115.94
2023-03-12T09:25:57.512Z,100124.66
2023-03-12T09:27:00.215Z,100109.53
2023-03-12T09:28:05.443Z,100111.84
2023-03-12T09:29:07.955Z,100115.16
2023-03-12T09:30:14.102Z,100121.84
2023-03-12T09:31:16.753Z,100117.69
2023-03-12T09:32:18.374Z,100117.41
2023-03-12T09:33:20.931Z,100129.75
2023-03-12T09:34:22.506Z,100109.75
2023-03-12T09:35:25.017Z,100114.69
2023-03-12T09:36:26.534Z,100116.75
2023-03-12T09:37:29.383Z,100113.34
2023-03-12T09:38:31.931Z,100107.31
2023-03-12T09:39:34.550Z,100115.50
2023-03-12T09:40:38.504Z,100103.97
2023-03-12T09:41:43.776Z,100094.44
2023-03-12T09:42:50.938Z,100100.47
2023-03-12T09:43:59.895Z,100098.34
2023-03-12T09:45:05.936Z,100105.72
2023-03-12T09:46:15.869Z,100105.50
2023-03-12T09:47:25.746Z,100100.84
2023-03-12T09:48:34.450Z,100105.00
2023-03-12T09:49:41.961Z,100108.97
2023-03-12T09:50:48.723Z,100101.41
2023-03-12T09:51:55.562Z,100109.03
2023-03-12T09:53:01.660Z,100109.50
2023-03-12T09:54:07.216Z,100102.44
2023-03-12T09:55:15.083Z,100096.19
2023-03-12T09:56:20.093Z,100098.34
2023-03-12T09:57:25.663Z,100101.75
2023-03-12T09:58:31.379Z,100101.84
2023-03-12T09:59:36.982Z,100109.28
2023-03-12T10:00:39.805Z,100110.91
2023-03-12T10:01:48.026Z,100104.47
2023-03-12T10:03:11.446Z,100107.25
2023-03-12T10:04:24.129Z,100102.78
2023-03-12T10:05:36.704Z,100084.81
2023-03-12T10:06:47.198Z,100092.38
2023-03-12T10:07:53.303Z,100089.25
2023-03-12T10:09:07.880Z,100079.38
2023-03-12T10:10:38.089Z,100082.47
2023-03-12T10:11:47.701Z,100082.22
2023-03-12T10:13:14.645Z,100079.06
2023-03-12T10:14:26.829Z,100074.84
2023-03-12T10:15:40.402Z,100074.31
2023-03-12T10:16:55.138Z,100075.63
2023-03-12T10:18:13.917Z,100075.88
2023-03-12T10:19:38.597Z,100080.81
2023-03-12T10:20:59.392Z,100083.03
2023-03-12T10:22:07.637Z,100078.75
2023-03-12T10:23:14.173Z,100079.06
2023-03-12T10:24:29.016Z,100084.38
2023-03-12T10:25:41.895Z,100092.31
2023-03-12T10:26:47.905Z,100084.19
2023-03-12T10:27:51.160Z,100079.81
2023-03-12T10:28:59.058Z,100078.91
2023-03-12T10:30:03.494Z,100085.13
2023-03-12T10:31:14.540Z,100070.22
2023-03-12T10:32:20.597Z,100064.81
2023-03-12T10:33:26.685Z,100066.16
2023-03-12T10:34:32.931Z,100063.03
2023-03-12T10:35:36.420Z,100063.63
2023-03-12T10:36:40.940Z,100067.88
2023-03-12T10:37:45.375Z,100057.00
2023-03-12T10:38:49.689Z,100076.28
2023-03-12T10:39:52.976Z,100072.19
2023-03-12T10:40:55.549Z,100064.22
2023-03-12T10:42:01.725Z,100068.47
2023-03-12T10:43:06.884Z,100062.06
2023-03-12T10:44:09.647Z,100052.09
2023-03-12T10:45:23.199Z,100060.69
2023-03-12T10:46:55.523Z,100052.97
2023-03-12T10:48:03.278Z,100041.88
2023-03-12T10:49:30.885Z,100049.19
2023-03-12T10:50:34.848Z,100048.66
2023-03-12T10:51:54.501Z,100060.69
2023-03-12T10:53:20.536Z,100059.53
2023-03-12T10:54:23.463Z,100050.78
2023-03-12T10:55:29.426Z,100054.19
2023-03-12T10:56:49.189Z,100070.59
2023-03-12T10:57:52.066Z,100055.19
2023-03-12T10:58:54.310Z,100058.06
2023-03-12T11:00:11.979Z,100056.09
2023-03-12T11:01:22.110Z,100053.31
2023-03-12T11:02:33.535Z,100052.81
2023-03-12T11:03:37.988Z,100054.16
2023-03-12T11:04:39.538Z,100060.03
2023-03-12T11:05:48.929Z,100045.19
2023-03-12T11:07:20.611Z,100037.38
2023-03-12T11:08:27.376Z,100039.88
2023-03-12T11:09:28.940Z,100033.34
2023-03-12T11:10:44.268Z,100039.66
2023-03-12T11:11:47.669Z,100036.75
2023-03-12T11:13:00.301Z,100027.31
2023-03-12T11:14:18.116Z,100032.59
2023-03-12T11:15:22.216Z,100023.50
2023-03-12T11:16:31.910Z,100034.66
2023-03-12T11:17:34.004Z,100016.28
2023-03-12T11:18:40.480Z,100023.47
2023-03-12T11:19:42.023Z,100022.81
2023-03-12T11:20:44.682Z,100022.34
2023-03-12T11:21:56.288Z,100015.59
2023-03-12T11:22:59.091Z,100016.88
2023-03-12T11:24:10.604Z,100011.63
2023-03-12T11:25:22.135Z,100010.59
2023-03-12T11:26:26.599Z,100001.91
2023-03-12T11:27:38.438Z,100003.50
2023-03-12T11:28:44.560Z,99997.63
2023-03-12T11:29:49.082Z,99999.50
2023-03-12T11:30:54.936Z,100000.63
2023-03-12T11:32:04.604Z,99999.78
2023-03-12T11:33:06.795Z,100002.22
2023-03-12T11:34:20.108Z,100003.56
2023-03-12T11:35:37.389Z,100002.72
2023-03-12T11:36:48.764Z,100003.16
2023-03-12T11:38:01.110Z,99996.34
2023-03-12T11:39:15.222Z,99994.66
2023-03-12T11:40:27.789Z,99991.53
2023-03-12T11:41:58.630Z,99995.25
2023-03-12T11:43:39.967Z,99993.47
2023-03-12T11:44:56.700Z,99988.88
2023-03-12T11:46:16.798Z,99988.56
2023-03-12T11:47:39.952Z,99993.00
2023-03-12T11:48:54.427Z,99979.91
2023-03-12T11:50:21.188Z,99986.41
2023-03-12T11:51:36.928Z,99978.06
2023-03-12T11:52:51.274Z,99977.19
2023-03-12T11:54:09.158Z,99968.66
2023-03-12T11:55:21.413Z,99972.75
2023-03-12T11:56:29.927Z,99960.97
2023-03-12T11:57:42.958Z,99955.50
2023-03-12T11:58:58.630Z,99959.41
2023-03-12T12:00:12.613Z,99957.97
2023-03-12T12:01:27.095Z,99954.50
2023-03-12T12:02:55.919Z,99961.31
2023-03-12T12:04:19.325Z,99952.91
2023-03-12T12:05:46.260Z,99938.22
2023-03-12T12:06:59.133Z,99938.53
2023-03-12T12:08:23.469Z,99940.78
2023-03-12T12:09:33.915Z,99936.78
2023-03-12T12:10:44.706Z,99930.53
2023-03-12T12:12:05.745Z,99928.69
2023-03-12T12:13:14.656Z,99931.66
2023-03-12T12:14:30.517Z,99938.16
2023-03-12T12:15:39.522Z,99920.81
2023-03-12T12:17:07.764Z,99922.72
2023-03-12T12:18:30.484Z,99912.91
2023-03-12T12:19:44.793Z,99904.25
2023-03-12T12:20:59.237Z,99913.75